Terminal Aerodrome Forecast
Issued by NWS

Home | Current Version | Previous Version | Text Only | Print | Product List | Glossary On
Versions: 1 2 3 4 5 6 7 8 9 10 11 12 13 14 15 16 17 18 19
934
FTUS43 KFGF 270520
TAFDVL
TAF
KDVL 270520Z 2706/2806 VRB03KT P6SM SCT070
     FM271000 VRB03KT P6SM SCT015
      TEMPO 2710/2714 BKN015
     FM271500 31005KT P6SM SCT020 BKN250
     FM271800 04004KT P6SM BKN050=

USA.gov is the U.S. government's official web portal to all federal, state and local government web resources and services.